sensor_id;sensor_type;location;lat;lon;timestamp;pressure;altitude;pressure_sealevel;temperature;humidity
76973;BME280;65907;53.640;10.050;2023-06-22T00:01:00;101262.50;;;28.42;40.83
76973;BME280;65907;53.640;10.050;2023-06-22T00:03:26;101254.25;;;28.45;40.66
76973;BME280;65907;53.640;10.050;2023-06-22T00:05:51;101249.28;;;28.42;40.92
76973;BME280;65907;53.640;10.050;2023-06-22T00:08:17;101267.31;;;28.55;40.81
76973;BME280;65907;53.640;10.050;2023-06-22T00:10:42;101268.47;;;28.44;41.08
76973;BME280;65907;53.640;10.050;2023-06-22T00:13:11;101272.75;;;28.62;40.82
76973;BME280;65907;53.640;10.050;2023-06-22T00:15:37;101275.72;;;28.51;40.97
76973;BME280;65907;53.640;10.050;2023-06-22T00:18:03;101283.19;;;28.55;40.95
76973;BME280;65907;53.640;10.050;2023-06-22T00:20:28;101281.19;;;28.57;40.76
76973;BME280;65907;53.640;10.050;2023-06-22T00:22:54;101279.38;;;28.50;40.85
76973;BME280;65907;53.640;10.050;2023-06-22T00:25:20;101276.06;;;28.47;40.94
76973;BME280;65907;53.640;10.050;2023-06-22T00:27:45;101284.00;;;28.56;41.05
76973;BME280;65907;53.640;10.050;2023-06-22T00:30:10;101279.88;;;28.53;40.79
76973;BME280;65907;53.640;10.050;2023-06-22T00:32:36;101285.66;;;28.57;40.62
76973;BME280;65907;53.640;10.050;2023-06-22T00:35:03;101290.78;;;28.58;40.72
76973;BME280;65907;53.640;10.050;2023-06-22T00:37:29;101294.09;;;28.60;40.59
76973;BME280;65907;53.640;10.050;2023-06-22T00:39:55;101287.28;;;28.58;40.91
76973;BME280;65907;53.640;10.050;2023-06-22T00:42:25;101285.50;;;28.58;40.80
76973;BME280;65907;53.640;10.050;2023-06-22T00:44:51;101283.19;;;28.55;40.82
76973;BME280;65907;53.640;10.050;2023-06-22T00:47:17;101280.69;;;28.62;40.82
76973;BME280;65907;53.640;10.050;2023-06-22T00:49:43;101265.31;;;28.57;40.73
76973;BME280;65907;53.640;10.050;2023-06-22T00:52:08;101262.16;;;28.54;40.71
76973;BME280;65907;53.640;10.050;2023-06-22T00:54:38;101257.22;;;28.51;40.68
76973;BME280;65907;53.640;10.050;2023-06-22T00:57:04;101252.75;;;28.51;40.92
76973;BME280;65907;53.640;10.050;2023-06-22T00:59:31;101255.88;;;28.55;40.99
76973;BME280;65907;53.640;10.050;2023-06-22T01:01:58;101249.28;;;28.51;40.81
76973;BME280;65907;53.640;10.050;2023-06-22T01:04:24;101245.81;;;28.50;40.70
76973;BME280;65907;53.640;10.050;2023-06-22T01:07:10;101243.00;;;28.52;40.84
76973;BME280;65907;53.640;10.050;2023-06-22T01:09:51;101247.63;;;28.50;40.70
76973;BME280;65907;53.640;10.050;2023-06-22T01:12:24;101234.91;;;28.53;40.73
76973;BME280;65907;53.640;10.050;2023-06-22T01:14:52;101238.88;;;28.57;40.65
76973;BME280;65907;53.640;10.050;2023-06-22T01:17:20;101228.78;;;28.53;40.85
76973;BME280;65907;53.640;10.050;2023-06-22T01:22:25;101227.31;;;28.50;40.80
76973;BME280;65907;53.640;10.050;2023-06-22T01:29:48;101213.38;;;28.65;40.63
76973;BME280;65907;53.640;10.050;2023-06-22T01:32:13;101220.50;;;28.56;40.43
76973;BME280;65907;53.640;10.050;2023-06-22T01:34:39;101227.78;;;28.62;40.38
76973;BME280;65907;53.640;10.050;2023-06-22T01:37:05;101232.72;;;28.57;40.62
76973;BME280;65907;53.640;10.050;2023-06-22T01:39:31;101233.56;;;28.57;40.61
76973;BME280;65907;53.640;10.050;2023-06-22T01:41:59;101243.81;;;28.60;40.43
76973;BME280;65907;53.640;10.050;2023-06-22T01:44:27;101235.38;;;28.57;40.72
76973;BME280;65907;53.640;10.050;2023-06-22T01:46:53;101231.09;;;28.56;40.48
76973;BME280;65907;53.640;10.050;2023-06-22T01:49:18;101228.78;;;28.53;40.35
76973;BME280;65907;53.640;10.050;2023-06-22T01:51:44;101228.78;;;28.53;40.29
76973;BME280;65907;53.640;10.050;2023-06-22T01:54:09;101228.44;;;28.56;40.42
76973;BME280;65907;53.640;10.050;2023-06-22T01:56:36;101227.63;;;28.55;40.31
76973;BME280;65907;53.640;10.050;2023-06-22T02:01:31;101230.59;;;28.52;40.34
76973;BME280;65907;53.640;10.050;2023-06-22T02:04:04;101224.31;;;28.53;40.39
76973;BME280;65907;53.640;10.050;2023-06-22T02:06:42;101231.41;;;28.53;40.27
76973;BME280;65907;53.640;10.050;2023-06-22T02:09:17;101235.06;;;28.52;40.32
76973;BME280;65907;53.640;10.050;2023-06-22T02:11:44;101235.72;;;28.54;40.47
76973;BME280;65907;53.640;10.050;2023-06-22T02:14:13;101246.94;;;28.56;40.34
76973;BME280;65907;53.640;10.050;2023-06-22T02:16:39;101238.34;;;28.54;40.40
76973;BME280;65907;53.640;10.050;2023-06-22T02:19:05;101238.22;;;28.55;40.33
76973;BME280;65907;53.640;10.050;2023-06-22T02:21:33;101241.34;;;28.51;40.31
76973;BME280;65907;53.640;10.050;2023-06-22T02:23:58;101240.34;;;28.52;40.33
76973;BME280;65907;53.640;10.050;2023-06-22T02:26:25;101246.47;;;28.52;40.40
76973;BME280;65907;53.640;10.050;2023-06-22T02:28:50;101243.31;;;28.48;40.51
76973;BME280;65907;53.640;10.050;2023-06-22T02:31:16;101242.00;;;28.53;40.38
76973;BME280;65907;53.640;10.050;2023-06-22T02:33:41;101246.63;;;28.51;40.42
76973;BME280;65907;53.640;10.050;2023-06-22T02:36:06;101248.63;;;28.48;40.46
76973;BME280;65907;53.640;10.050;2023-06-22T02:38:34;101250.44;;;28.48;40.51
76973;BME280;65907;53.640;10.050;2023-06-22T02:41:02;101257.41;;;28.49;40.31
76973;BME280;65907;53.640;10.050;2023-06-22T02:43:27;101261.00;;;28.48;40.35
76973;BME280;65907;53.640;10.050;2023-06-22T02:45:53;101256.38;;;28.42;40.46
76973;BME280;65907;53.640;10.050;2023-06-22T02:48:18;101269.47;;;28.43;40.56
76973;BME280;65907;53.640;10.050;2023-06-22T02:50:43;101270.59;;;28.41;40.33
76973;BME280;65907;53.640;10.050;2023-06-22T02:53:09;101268.47;;;28.44;40.56
76973;BME280;65907;53.640;10.050;2023-06-22T02:55:34;101274.41;;;28.46;40.41
76973;BME280;65907;53.640;10.050;2023-06-22T02:57:59;101283.34;;;28.45;40.43
76973;BME280;65907;53.640;10.050;2023-06-22T03:00:24;101280.38;;;28.48;40.37
76973;BME280;65907;53.640;10.050;2023-06-22T03:02:55;101285.16;;;28.53;40.25
76973;BME280;65907;53.640;10.050;2023-06-22T03:05:20;101284.16;;;28.46;40.10
76973;BME280;65907;53.640;10.050;2023-06-22T03:07:46;101288.13;;;28.42;40.45
76973;BME280;65907;53.640;10.050;2023-06-22T03:10:13;101281.69;;;28.44;40.36
76973;BME280;65907;53.640;10.050;2023-06-22T03:12:39;101282.03;;;28.41;40.25
76973;BME280;65907;53.640;10.050;2023-06-22T03:15:05;101282.84;;;28.50;40.22
76973;BME280;65907;53.640;10.050;2023-06-22T03:17:31;101288.97;;;28.42;40.43
76973;BME280;65907;53.640;10.050;2023-06-22T03:19:56;101278.38;;;28.51;40.31
76973;BME280;65907;53.640;10.050;2023-06-22T03:22:21;101277.72;;;28.48;40.25
76973;BME280;65907;53.640;10.050;2023-06-22T03:24:46;101282.50;;;28.45;40.36
76973;BME280;65907;53.640;10.050;2023-06-22T03:27:12;101277.88;;;28.47;40.12
76973;BME280;65907;53.640;10.050;2023-06-22T03:29:38;101281.50;;;28.46;40.25
76973;BME280;65907;53.640;10.050;2023-06-22T03:32:03;101283.16;;;28.47;40.03
76973;BME280;65907;53.640;10.050;2023-06-22T03:34:31;101279.03;;;28.44;40.27
76973;BME280;65907;53.640;10.050;2023-06-22T03:36:59;101280.19;;;28.42;40.43
76973;BME280;65907;53.640;10.050;2023-06-22T03:39:24;101277.22;;;28.45;39.92
76973;BME280;65907;53.640;10.050;2023-06-22T03:41:49;101267.16;;;28.40;40.28
76973;BME280;65907;53.640;10.050;2023-06-22T03:44:15;101269.94;;;28.47;40.17
76973;BME280;65907;53.640;10.050;2023-06-22T03:46:42;101272.75;;;28.45;40.05
76973;BME280;65907;53.640;10.050;2023-06-22T03:49:07;101265.63;;;28.46;40.18
76973;BME280;65907;53.640;10.050;2023-06-22T03:51:33;101263.84;;;28.46;40.10
76973;BME280;65907;53.640;10.050;2023-06-22T03:54:00;101270.13;;;28.45;40.13
76973;BME280;65907;53.640;10.050;2023-06-22T03:56:26;101270.78;;;28.47;40.15
76973;BME280;65907;53.640;10.050;2023-06-22T03:58:51;101270.25;;;28.44;40.19
76973;BME280;65907;53.640;10.050;2023-06-22T04:01:19;101263.97;;;28.45;40.16
76973;BME280;65907;53.640;10.050;2023-06-22T04:03:44;101270.25;;;28.44;39.99
76973;BME280;65907;53.640;10.050;2023-06-22T04:06:09;101269.94;;;28.47;40.02
76973;BME280;65907;53.640;10.050;2023-06-22T04:08:37;101270.25;;;28.44;40.08
76973;BME280;65907;53.640;10.050;2023-06-22T04:11:05;101275.72;;;28.51;39.91
76973;BME280;65907;53.640;10.050;2023-06-22T04:13:31;101276.22;;;28.71;39.48
76973;BME280;65907;53.640;10.050;2023-06-22T04:15:58;101278.41;;;28.84;39.18
76973;BME280;65907;53.640;10.050;2023-06-22T04:18:26;101273.88;;;28.93;39.09
76973;BME280;65907;53.640;10.050;2023-06-22T04:20:51;101269.75;;;28.73;39.55
76973;BME280;65907;53.640;10.050;2023-06-22T04:23:19;101271.94;;;28.61;39.62
76973;BME280;65907;53.640;10.050;2023-06-22T04:25:44;101271.25;;;28.59;39.77
76973;BME280;65907;53.640;10.050;2023-06-22T04:28:09;101271.41;;;28.58;39.86
76973;BME280;65907;53.640;10.050;2023-06-22T04:30:37;101271.75;;;28.55;39.85
76973;BME280;65907;53.640;10.050;2023-06-22T04:33:11;101267.97;;;28.41;40.13
76973;BME280;65907;53.640;10.050;2023-06-22T04:35:39;101264.81;;;28.37;40.09
76973;BME280;65907;53.640;10.050;2023-06-22T04:38:06;101267.47;;;28.45;39.94
76973;BME280;65907;53.640;10.050;2023-06-22T04:40:34;101270.75;;;28.56;39.65
76973;BME280;65907;53.640;10.050;2023-06-22T04:42:59;101275.91;;;28.82;39.38
76973;BME280;65907;53.640;10.050;2023-06-22T04:45:27;101275.75;;;28.84;39.06
76973;BME280;65907;53.640;10.050;2023-06-22T04:47:52;101274.41;;;28.71;39.56
76973;BME280;65907;53.640;10.050;2023-06-22T04:50:18;101278.22;;;28.60;39.86
76973;BME280;65907;53.640;10.050;2023-06-22T04:52:46;101280.69;;;28.54;39.84
76973;BME280;65907;53.640;10.050;2023-06-22T04:55:11;101276.88;;;28.31;40.21
76973;BME280;65907;53.640;10.050;2023-06-22T04:57:38;101277.88;;;28.55;39.71
76973;BME280;65907;53.640;10.050;2023-06-22T05:00:04;101277.88;;;28.47;40.25
76973;BME280;65907;53.640;10.050;2023-06-22T05:02:40;101278.00;;;29.12;38.67
76973;BME280;65907;53.640;10.050;2023-06-22T05:05:05;101272.63;;;29.45;37.98
76973;BME280;65907;53.640;10.050;2023-06-22T05:07:35;101266.34;;;29.77;37.42
76973;BME280;65907;53.640;10.050;2023-06-22T05:10:01;101262.75;;;30.02;36.89
76973;BME280;65907;53.640;10.050;2023-06-22T05:12:27;101260.50;;;30.14;36.77
76973;BME280;65907;53.640;10.050;2023-06-22T05:14:54;101270.13;;;29.83;37.40
76973;BME280;65907;53.640;10.050;2023-06-22T05:17:19;101259.03;;;29.40;38.21
76973;BME280;65907;53.640;10.050;2023-06-22T05:19:44;101257.69;;;28.71;39.45
76973;BME280;65907;53.640;10.050;2023-06-22T05:22:13;101252.59;;;28.44;40.05
76973;BME280;65907;53.640;10.050;2023-06-22T05:24:40;101252.09;;;28.82;39.46
76973;BME280;65907;53.640;10.050;2023-06-22T05:27:06;101253.38;;;28.95;39.25
76973;BME280;65907;53.640;10.050;2023-06-22T05:29:33;101256.22;;;28.43;40.21
76973;BME280;65907;53.640;10.050;2023-06-22T05:31:58;101252.09;;;28.49;40.25
76973;BME280;65907;53.640;10.050;2023-06-22T05:34:24;101258.47;;;27.97;41.40
76973;BME280;65907;53.640;10.050;2023-06-22T05:36:49;101254.34;;;27.16;42.76
76973;BME280;65907;53.640;10.050;2023-06-22T05:39:14;101253.50;;;27.51;41.99
76973;BME280;65907;53.640;10.050;2023-06-22T05:41:42;101256.09;;;27.34;42.26
76973;BME280;65907;53.640;10.050;2023-06-22T05:44:17;101253.47;;;27.77;41.49
76973;BME280;65907;53.640;10.050;2023-06-22T05:46:43;101258.28;;;27.90;41.17
76973;BME280;65907;53.640;10.050;2023-06-22T05:49:13;101258.63;;;27.87;41.35
76973;BME280;65907;53.640;10.050;2023-06-22T05:51:39;101254.13;;;27.71;41.40
76973;BME280;65907;53.640;10.050;2023-06-22T05:54:04;101260.47;;;28.03;40.81
76973;BME280;65907;53.640;10.050;2023-06-22T05:56:29;101259.22;;;27.64;41.60
76973;BME280;65907;53.640;10.050;2023-06-22T05:58:57;101251.69;;;27.86;41.47
76973;BME280;65907;53.640;10.050;2023-06-22T06:01:23;101246.47;;;28.27;40.54
76973;BME280;65907;53.640;10.050;2023-06-22T06:03:48;101246.28;;;28.37;40.38
76973;BME280;65907;53.640;10.050;2023-06-22T06:06:14;101251.25;;;28.32;40.19
76973;BME280;65907;53.640;10.050;2023-06-22T06:08:40;101251.09;;;28.17;40.72
76973;BME280;65907;53.640;10.050;2023-06-22T06:11:05;101256.22;;;28.35;40.60
76973;BME280;65907;53.640;10.050;2023-06-22T06:13:31;101255.56;;;28.33;40.50
76973;BME280;65907;53.640;10.050;2023-06-22T06:15:56;101251.59;;;28.45;40.30
76973;BME280;65907;53.640;10.050;2023-06-22T06:18:22;101258.72;;;28.28;40.71
76973;BME280;65907;53.640;10.050;2023-06-22T06:20:54;101251.59;;;28.37;40.40
76973;BME280;65907;53.640;10.050;2023-06-22T06:23:19;101245.31;;;28.30;40.65
76973;BME280;65907;53.640;10.050;2023-06-22T06:25:47;101247.97;;;28.46;40.52
76973;BME280;65907;53.640;10.050;2023-06-22T06:28:12;101237.56;;;28.53;40.52
76973;BME280;65907;53.640;10.050;2023-06-22T06:30:37;101232.09;;;28.63;40.24
76973;BME280;65907;53.640;10.050;2023-06-22T06:33:05;101234.22;;;28.59;40.19
76973;BME280;65907;53.640;10.050;2023-06-22T06:35:33;101229.75;;;28.60;40.20
76973;BME280;65907;53.640;10.050;2023-06-22T06:37:59;101234.53;;;28.89;39.59
76973;BME280;65907;53.640;10.050;2023-06-22T06:40:24;101229.72;;;28.93;39.83
76973;BME280;65907;53.640;10.050;2023-06-22T06:42:52;101223.09;;;28.97;39.32
76973;BME280;65907;53.640;10.050;2023-06-22T06:45:20;101220.16;;;28.92;39.41
76973;BME280;65907;53.640;10.050;2023-06-22T06:47:48;101214.81;;;29.09;39.24
76973;BME280;65907;53.640;10.050;2023-06-22T06:50:17;101222.22;;;29.13;39.34
76973;BME280;65907;53.640;10.050;2023-06-22T06:52:45;101217.66;;;28.90;39.85
76973;BME280;65907;53.640;10.050;2023-06-22T06:55:10;101222.44;;;28.95;39.45
76973;BME280;65907;53.640;10.050;2023-06-22T06:57:37;101221.41;;;29.04;39.15
76973;BME280;65907;53.640;10.050;2023-06-22T07:00:03;101218.09;;;29.11;39.23
76973;BME280;65907;53.640;10.050;2023-06-22T07:02:34;101223.25;;;29.04;39.25
76973;BME280;65907;53.640;10.050;2023-06-22T07:04:59;101233.66;;;29.14;38.87
76973;BME280;65907;53.640;10.050;2023-06-22T07:07:27;101227.34;;;29.15;39.22
76973;BME280;65907;53.640;10.050;2023-06-22T07:09:55;101231.47;;;29.17;38.81
76973;BME280;65907;53.640;10.050;2023-06-22T07:12:20;101226.34;;;29.16;39.07
76973;BME280;65907;53.640;10.050;2023-06-22T07:14:48;101228.50;;;29.12;39.31
76973;BME280;65907;53.640;10.050;2023-06-22T07:17:13;101234.09;;;29.17;39.26
76973;BME280;65907;53.640;10.050;2023-06-22T07:19:38;101232.47;;;29.16;39.09
76973;BME280;65907;53.640;10.050;2023-06-22T07:22:04;101232.25;;;29.26;39.03
76973;BME280;65907;53.640;10.050;2023-06-22T07:24:31;101230.25;;;29.28;38.86
76973;BME280;65907;53.640;10.050;2023-06-22T07:26:57;101228.66;;;29.19;39.09
76973;BME280;65907;53.640;10.050;2023-06-22T07:29:24;101221.94;;;29.40;38.84
76973;BME280;65907;53.640;10.050;2023-06-22T07:31:51;101218.50;;;29.31;38.79
76973;BME280;65907;53.640;10.050;2023-06-22T07:34:21;101216.38;;;29.26;39.08
76973;BME280;65907;53.640;10.050;2023-06-22T07:36:46;101209.63;;;29.15;39.14
76973;BME280;65907;53.640;10.050;2023-06-22T07:39:12;101215.56;;;29.26;39.11
76973;BME280;65907;53.640;10.050;2023-06-22T07:41:38;101206.97;;;29.15;39.03
76973;BME280;65907;53.640;10.050;2023-06-22T07:44:09;101213.66;;;29.03;39.29
76973;BME280;65907;53.640;10.050;2023-06-22T07:46:34;101210.16;;;29.02;39.18
76973;BME280;65907;53.640;10.050;2023-06-22T07:48:59;101212.50;;;28.97;39.50
76973;BME280;65907;53.640;10.050;2023-06-22T07:51:26;101213.00;;;29.01;39.42
76973;BME280;65907;53.640;10.050;2023-06-22T07:53:51;101215.19;;;28.81;40.07
76973;BME280;65907;53.640;10.050;2023-06-22T07:56:16;101219.16;;;28.68;39.96
76973;BME280;65907;53.640;10.050;2023-06-22T07:58:45;101215.03;;;28.66;40.14
76973;BME280;65907;53.640;10.050;2023-06-22T08:01:11;101217.34;;;28.69;40.03
76973;BME280;65907;53.640;10.050;2023-06-22T08:03:36;101212.84;;;28.77;39.74
76973;BME280;65907;53.640;10.050;2023-06-22T08:06:04;101215.22;;;28.56;40.01
76973;BME280;65907;53.640;10.050;2023-06-22T08:08:29;101212.53;;;28.72;39.81
76973;BME280;65907;53.640;10.050;2023-06-22T08:10:54;101216.34;;;28.78;39.49
76973;BME280;65907;53.640;10.050;2023-06-22T08:13:22;101223.28;;;28.71;39.66
76973;BME280;65907;53.640;10.050;2023-06-22T08:15:47;101221.31;;;28.73;39.79
76973;BME280;65907;53.640;10.050;2023-06-22T08:18:12;101226.63;;;28.56;40.03
76973;BME280;65907;53.640;10.050;2023-06-22T08:20:38;101234.56;;;28.48;40.01
76973;BME280;65907;53.640;10.050;2023-06-22T08:23:03;101227.47;;;28.40;40.39
76973;BME280;65907;53.640;10.050;2023-06-22T08:25:32;101224.16;;;28.38;40.49
76973;BME280;65907;53.640;10.050;2023-06-22T08:27:57;101226.28;;;28.43;40.32
76973;BME280;65907;53.640;10.050;2023-06-22T08:30:27;101224.63;;;28.25;40.57
76973;BME280;65907;53.640;10.050;2023-06-22T08:32:55;101223.50;;;28.44;40.09
76973;BME280;65907;53.640;10.050;2023-06-22T08:35:23;101223.34;;;28.38;40.23
76973;BME280;65907;53.640;10.050;2023-06-22T08:37:51;101234.41;;;28.50;40.31
76973;BME280;65907;53.640;10.050;2023-06-22T08:40:19;101228.28;;;28.41;40.44
76973;BME280;65907;53.640;10.050;2023-06-22T08:42:45;101231.09;;;28.56;40.27
76973;BME280;65907;53.640;10.050;2023-06-22T08:45:11;101235.53;;;28.63;39.92
76973;BME280;65907;53.640;10.050;2023-06-22T08:47:41;101225.66;;;28.49;40.42
76973;BME280;65907;53.640;10.050;2023-06-22T08:50:07;101214.91;;;28.26;40.84
76973;BME280;65907;53.640;10.050;2023-06-22T08:52:33;101216.22;;;28.46;40.46
76973;BME280;65907;53.640;10.050;2023-06-22T08:54:59;101214.75;;;28.36;40.71
76973;BME280;65907;53.640;10.050;2023-06-22T08:57:24;101216.25;;;28.38;40.55
76973;BME280;65907;53.640;10.050;2023-06-22T08:59:49;101214.06;;;28.42;40.60
76973;BME280;65907;53.640;10.050;2023-06-22T09:02:17;101211.59;;;28.24;41.20
76973;BME280;65907;53.640;10.050;2023-06-22T09:04:47;101216.91;;;28.40;40.84
76973;BME280;65907;53.640;10.050;2023-06-22T09:07:13;101213.09;;;28.26;41.19
76973;BME280;65907;53.640;10.050;2023-06-22T09:09:39;101214.25;;;28.15;41.23
76973;BME280;65907;53.640;10.050;2023-06-22T09:12:04;101205.47;;;28.40;40.99
76973;BME280;65907;53.640;10.050;2023-06-22T09:14:29;101197.19;;;28.59;40.59
76973;BME280;65907;53.640;10.050;2023-06-22T09:16:54;101180.81;;;28.64;40.44
76973;BME280;65907;53.640;10.050;2023-06-22T09:19:20;101181.28;;;28.76;40.19
76973;BME280;65907;53.640;10.050;2023-06-22T09:21:45;101169.59;;;28.62;40.47
76973;BME280;65907;53.640;10.050;2023-06-22T09:24:10;101173.69;;;28.65;40.46
76973;BME280;65907;53.640;10.050;2023-06-22T09:26:35;101175.53;;;28.64;40.50
76973;BME280;65907;53.640;10.050;2023-06-22T09:29:01;101168.75;;;28.61;40.63
76973;BME280;65907;53.640;10.050;2023-06-22T09:31:26;101166.44;;;28.58;40.50
76973;BME280;65907;53.640;10.050;2023-06-22T09:33:52;101165.22;;;28.77;40.03
76973;BME280;65907;53.640;10.050;2023-06-22T09:36:22;101154.31;;;28.81;40.13
76973;BME280;65907;53.640;10.050;2023-06-22T09:38:48;101154.34;;;28.64;40.46
76973;BME280;65907;53.640;10.050;2023-06-22T09:41:13;101157.28;;;28.77;40.28
76973;BME280;65907;53.640;10.050;2023-06-22T09:43:39;101162.25;;;28.72;40.19
76973;BME280;65907;53.640;10.050;2023-06-22T09:46:06;101171.88;;;28.65;40.39
76973;BME280;65907;53.640;10.050;2023-06-22T09:48:32;101173.84;;;28.71;40.23
76973;BME280;65907;53.640;10.050;2023-06-22T09:50:57;101176.56;;;28.30;41.21
76973;BME280;65907;53.640;10.050;2023-06-22T09:53:22;101173.91;;;28.30;41.39
76973;BME280;65907;53.640;10.050;2023-06-22T09:55:47;101167.63;;;28.31;41.33
76973;BME280;65907;53.640;10.050;2023-06-22T09:58:13;101163.69;;;28.18;41.54
76973;BME280;65907;53.640;10.050;2023-06-22T10:00:38;101159.69;;;28.31;41.54
76973;BME280;65907;53.640;10.050;2023-06-22T10:03:03;101162.97;;;28.08;41.96
76973;BME280;65907;53.640;10.050;2023-06-22T10:05:28;101157.69;;;27.83;42.59
76973;BME280;65907;53.640;10.050;2023-06-22T10:07:53;101157.53;;;27.85;42.58
76973;BME280;65907;53.640;10.050;2023-06-22T10:10:19;101160.00;;;28.03;41.84
76973;BME280;65907;53.640;10.050;2023-06-22T10:12:47;101158.41;;;28.18;41.66
76973;BME280;65907;53.640;10.050;2023-06-22T10:15:13;101155.41;;;28.30;41.57
76973;BME280;65907;53.640;10.050;2023-06-22T10:17:41;101154.72;;;28.03;42.29
76973;BME280;65907;53.640;10.050;2023-06-22T10:20:06;101153.78;;;28.21;41.54
76973;BME280;65907;53.640;10.050;2023-06-22T10:22:40;101154.25;;;28.08;42.00
76973;BME280;65907;53.640;10.050;2023-06-22T10:25:06;101140.53;;;27.96;42.77
76973;BME280;65907;53.640;10.050;2023-06-22T10:27:32;101138.69;;;28.13;42.03
76973;BME280;65907;53.640;10.050;2023-06-22T10:29:57;101133.09;;;28.08;42.30
76973;BME280;65907;53.640;10.050;2023-06-22T10:32:25;101139.84;;;28.10;42.21
76973;BME280;65907;53.640;10.050;2023-06-22T10:34:50;101140.34;;;27.97;42.29
76973;BME280;65907;53.640;10.050;2023-06-22T10:37:15;101130.94;;;28.03;42.39
76973;BME280;65907;53.640;10.050;2023-06-22T10:39:40;101124.81;;;28.36;41.62
76973;BME280;65907;53.640;10.050;2023-06-22T10:42:08;101133.59;;;28.19;42.32
76973;BME280;65907;53.640;10.050;2023-06-22T10:44:33;101134.25;;;28.30;41.85
76973;BME280;65907;53.640;10.050;2023-06-22T10:46:58;101126.00;;;28.25;42.07
76973;BME280;65907;53.640;10.050;2023-06-22T10:49:23;101135.56;;;28.26;41.95
76973;BME280;65907;53.640;10.050;2023-06-22T10:51:49;101125.69;;;28.19;42.19
76973;BME280;65907;53.640;10.050;2023-06-22T10:54:14;101122.34;;;28.34;41.99
76973;BME280;65907;53.640;10.050;2023-06-22T10:56:44;101121.03;;;28.22;42.54
76973;BME280;65907;53.640;10.050;2023-06-22T10:59:09;101115.91;;;28.28;42.24
76973;BME280;65907;53.640;10.050;2023-06-22T11:01:35;101105.66;;;28.33;41.79
76973;BME280;65907;53.640;10.050;2023-06-22T11:04:00;101100.50;;;28.48;41.74
76973;BME280;65907;53.640;10.050;2023-06-22T11:06:25;101099.88;;;28.38;42.01
76973;BME280;65907;53.640;10.050;2023-06-22T11:08:50;101102.44;;;28.63;41.53
76973;BME280;65907;53.640;10.050;2023-06-22T11:11:16;101104.25;;;28.62;41.76
76973;BME280;65907;53.640;10.050;2023-06-22T11:13:42;101104.81;;;28.33;42.02
76973;BME280;65907;53.640;10.050;2023-06-22T11:16:08;101102.09;;;28.66;41.39
76973;BME280;65907;53.640;10.050;2023-06-22T11:18:34;101102.63;;;28.53;41.83
76973;BME280;65907;53.640;10.050;2023-06-22T11:21:00;101103.09;;;28.65;41.39
76973;BME280;65907;53.640;10.050;2023-06-22T11:23:25;101094.50;;;28.63;41.58
76973;BME280;65907;53.640;10.050;2023-06-22T11:25:52;101090.53;;;28.59;41.54
76973;BME280;65907;53.640;10.050;2023-06-22T11:28:17;101086.19;;;28.74;41.48
76973;BME280;65907;53.640;10.050;2023-06-22T11:30:45;101089.53;;;28.68;41.62
76973;BME280;65907;53.640;10.050;2023-06-22T11:33:11;101091.22;;;28.61;41.70
76973;BME280;65907;53.640;10.050;2023-06-22T11:35:36;101091.06;;;28.54;41.71
76973;BME280;65907;53.640;10.050;2023-06-22T11:38:01;101092.97;;;28.69;41.57
76973;BME280;65907;53.640;10.050;2023-06-22T11:40:28;101076.59;;;28.73;41.42
76973;BME280;65907;53.640;10.050;2023-06-22T11:42:54;101077.56;;;28.89;41.21
76973;BME280;65907;53.640;10.050;2023-06-22T11:45:19;101069.78;;;28.87;41.22
76973;BME280;65907;53.640;10.050;2023-06-22T11:47:47;101066.19;;;28.72;41.34
76973;BME280;65907;53.640;10.050;2023-06-22T11:50:13;101058.06;;;28.82;41.32
76973;BME280;65907;53.640;10.050;2023-06-22T11:52:40;101045.97;;;28.87;41.24
76973;BME280;65907;53.640;10.050;2023-06-22T11:55:06;101042.38;;;28.72;41.64
76973;BME280;65907;53.640;10.050;2023-06-22T11:57:38;101044.34;;;28.78;41.64
76973;BME280;65907;53.640;10.050;2023-06-22T12:00:03;101038.53;;;28.83;41.07
76973;BME280;65907;53.640;10.050;2023-06-22T12:02:41;101020.69;;;28.85;41.32
76973;BME280;65907;53.640;10.050;2023-06-22T12:05:12;101013.06;;;28.82;41.33
76973;BME280;65907;53.640;10.050;2023-06-22T12:07:37;101010.25;;;28.83;41.37
76973;BME280;65907;53.640;10.050;2023-06-22T12:10:03;101015.50;;;28.91;41.40
76973;BME280;65907;53.640;10.050;2023-06-22T12:12:30;101023.06;;;28.95;41.24
76973;BME280;65907;53.640;10.050;2023-06-22T12:14:56;101022.09;;;28.96;41.21
76973;BME280;65907;53.640;10.050;2023-06-22T12:17:21;101014.34;;;28.94;41.27
76973;BME280;65907;53.640;10.050;2023-06-22T12:19:46;101013.19;;;28.88;41.25
76973;BME280;65907;53.640;10.050;2023-06-22T12:22:11;101006.13;;;28.81;41.32
76973;BME280;65907;53.640;10.050;2023-06-22T12:24:37;100996.84;;;28.76;41.56
76973;BME280;65907;53.640;10.050;2023-06-22T12:27:02;100994.50;;;28.90;41.30
76973;BME280;65907;53.640;10.050;2023-06-22T12:29:28;100995.44;;;28.97;40.99
76973;BME280;65907;53.640;10.050;2023-06-22T12:31:55;100990.28;;;29.04;41.01
76973;BME280;65907;53.640;10.050;2023-06-22T12:34:21;100991.66;;;28.91;41.31
76973;BME280;65907;53.640;10.050;2023-06-22T12:36:46;100988.66;;;28.95;41.21
76973;BME280;65907;53.640;10.050;2023-06-22T12:39:13;100984.84;;;28.97;41.10
76973;BME280;65907;53.640;10.050;2023-06-22T12:41:38;100984.34;;;29.02;40.99
76973;BME280;65907;53.640;10.050;2023-06-22T12:44:09;100973.78;;;28.94;41.19
76973;BME280;65907;53.640;10.050;2023-06-22T12:46:34;100978.28;;;28.93;41.32